sensor_id;sensor_type;location;lat;lon;timestamp;P1;durP1;ratioP1;P2;durP2;ratioP2
52734;SDS011;38631;47.572;10.704;2022-10-26T00:02:07;1.88;;;0.90;;
52734;SDS011;38631;47.572;10.704;2022-10-26T00:04:33;4.75;;;1.33;;
52734;SDS011;38631;47.572;10.704;2022-10-26T00:06:58;5.38;;;1.65;;
52734;SDS011;38631;47.572;10.704;2022-10-26T00:09:24;1.75;;;1.00;;
52734;SDS011;38631;47.572;10.704;2022-10-26T00:11:49;2.50;;;0.77;;
52734;SDS011;38631;47.572;10.704;2022-10-26T00:14:16;2.20;;;1.00;;
52734;SDS011;38631;47.572;10.704;2022-10-26T00:16:42;2.50;;;1.25;;
52734;SDS011;38631;47.572;10.704;2022-10-26T00:19:07;2.45;;;1.38;;
52734;SDS011;38631;47.572;10.704;2022-10-26T00:21:32;3.17;;;0.82;;
52734;SDS011;38631;47.572;10.704;2022-10-26T00:23:58;3.05;;;0.80;;
52734;SDS011;38631;47.572;10.704;2022-10-26T00:26:24;2.90;;;1.05;;
52734;SDS011;38631;47.572;10.704;2022-10-26T00:28:51;2.95;;;0.80;;
52734;SDS011;38631;47.572;10.704;2022-10-26T00:31:18;1.92;;;0.82;;
52734;SDS011;38631;47.572;10.704;2022-10-26T00:33:44;2.90;;;0.70;;
52734;SDS011;38631;47.572;10.704;2022-10-26T00:36:09;2.15;;;1.25;;
52734;SDS011;38631;47.572;10.704;2022-10-26T00:38:37;2.25;;;0.80;;
52734;SDS011;38631;47.572;10.704;2022-10-26T00:41:03;2.97;;;0.70;;
52734;SDS011;38631;47.572;10.704;2022-10-26T00:45:54;2.85;;;0.75;;
52734;SDS011;38631;47.572;10.704;2022-10-26T00:48:29;2.90;;;0.90;;
52734;SDS011;38631;47.572;10.704;2022-10-26T00:50:58;2.78;;;1.30;;
52734;SDS011;38631;47.572;10.704;2022-10-26T00:53:26;2.05;;;1.10;;
52734;SDS011;38631;47.572;10.704;2022-10-26T00:55:53;1.50;;;0.80;;
52734;SDS011;38631;47.572;10.704;2022-10-26T00:58:20;1.67;;;0.75;;
52734;SDS011;38631;47.572;10.704;2022-10-26T01:00:48;1.90;;;0.90;;
52734;SDS011;38631;47.572;10.704;2022-10-26T01:03:13;2.20;;;0.90;;
52734;SDS011;38631;47.572;10.704;2022-10-26T01:05:41;2.10;;;0.80;;
52734;SDS011;38631;47.572;10.704;2022-10-26T01:08:09;1.27;;;0.77;;
52734;SDS011;38631;47.572;10.704;2022-10-26T01:10:34;1.10;;;0.80;;
52734;SDS011;38631;47.572;10.704;2022-10-26T01:13:02;4.28;;;1.05;;
52734;SDS011;38631;47.572;10.704;2022-10-26T01:15:54;9.07;;;1.13;;
52734;SDS011;38631;47.572;10.704;2022-10-26T01:20:59;2.53;;;0.75;;
52734;SDS011;38631;47.572;10.704;2022-10-26T01:23:54;1.38;;;0.80;;
52734;SDS011;38631;47.572;10.704;2022-10-26T01:31:53;3.42;;;1.10;;
52734;SDS011;38631;47.572;10.704;2022-10-26T01:34:31;1.77;;;0.90;;
52734;SDS011;38631;47.572;10.704;2022-10-26T01:37:04;2.03;;;0.90;;
52734;SDS011;38631;47.572;10.704;2022-10-26T01:42:09;10.90;;;1.52;;
52734;SDS011;38631;47.572;10.704;2022-10-26T01:44:40;1.15;;;0.90;;
52734;SDS011;38631;47.572;10.704;2022-10-26T01:47:11;5.40;;;0.98;;
52734;SDS011;38631;47.572;10.704;2022-10-26T01:49:40;2.95;;;1.15;;
52734;SDS011;38631;47.572;10.704;2022-10-26T01:52:08;1.48;;;0.80;;
52734;SDS011;38631;47.572;10.704;2022-10-26T01:54:35;1.92;;;0.82;;
52734;SDS011;38631;47.572;10.704;2022-10-26T01:57:01;1.65;;;0.68;;
52734;SDS011;38631;47.572;10.704;2022-10-26T01:59:36;2.67;;;0.80;;
52734;SDS011;38631;47.572;10.704;2022-10-26T02:13:53;1.48;;;0.80;;
52734;SDS011;38631;47.572;10.704;2022-10-26T02:16:36;1.38;;;0.73;;
52734;SDS011;38631;47.572;10.704;2022-10-26T02:19:14;1.25;;;0.90;;
52734;SDS011;38631;47.572;10.704;2022-10-26T02:21:53;2.30;;;1.17;;
52734;SDS011;38631;47.572;10.704;2022-10-26T02:24:26;1.63;;;0.80;;
52734;SDS011;38631;47.572;10.704;2022-10-26T02:26:53;1.23;;;0.80;;
52734;SDS011;38631;47.572;10.704;2022-10-26T02:29:21;2.80;;;1.02;;
52734;SDS011;38631;47.572;10.704;2022-10-26T02:31:48;1.77;;;0.65;;
52734;SDS011;38631;47.572;10.704;2022-10-26T02:34:17;2.30;;;1.20;;
52734;SDS011;38631;47.572;10.704;2022-10-26T02:36:48;2.45;;;1.25;;
52734;SDS011;38631;47.572;10.704;2022-10-26T02:39:17;2.20;;;0.85;;
52734;SDS011;38631;47.572;10.704;2022-10-26T02:41:44;2.33;;;1.27;;
52734;SDS011;38631;47.572;10.704;2022-10-26T02:44:17;1.73;;;0.95;;
52734;SDS011;38631;47.572;10.704;2022-10-26T02:46:48;1.88;;;0.90;;
52734;SDS011;38631;47.572;10.704;2022-10-26T02:49:15;2.42;;;1.00;;
52734;SDS011;38631;47.572;10.704;2022-10-26T02:51:43;1.73;;;1.00;;
52734;SDS011;38631;47.572;10.704;2022-10-26T02:54:15;3.10;;;0.93;;
52734;SDS011;38631;47.572;10.704;2022-10-26T02:59:43;2.67;;;0.95;;
52734;SDS011;38631;47.572;10.704;2022-10-26T03:02:11;4.05;;;1.38;;
52734;SDS011;38631;47.572;10.704;2022-10-26T03:04:39;2.75;;;0.90;;
52734;SDS011;38631;47.572;10.704;2022-10-26T03:07:05;2.13;;;1.10;;
52734;SDS011;38631;47.572;10.704;2022-10-26T03:09:30;3.25;;;1.13;;
52734;SDS011;38631;47.572;10.704;2022-10-26T03:11:56;2.42;;;0.90;;
52734;SDS011;38631;47.572;10.704;2022-10-26T03:14:21;1.27;;;0.90;;
52734;SDS011;38631;47.572;10.704;2022-10-26T03:16:46;1.33;;;0.90;;
52734;SDS011;38631;47.572;10.704;2022-10-26T03:19:12;2.08;;;1.20;;
52734;SDS011;38631;47.572;10.704;2022-10-26T03:21:37;3.75;;;1.35;;
52734;SDS011;38631;47.572;10.704;2022-10-26T03:24:02;2.78;;;1.60;;
52734;SDS011;38631;47.572;10.704;2022-10-26T03:26:28;3.33;;;1.75;;
52734;SDS011;38631;47.572;10.704;2022-10-26T03:28:53;4.10;;;1.50;;
52734;SDS011;38631;47.572;10.704;2022-10-26T03:31:18;2.40;;;1.30;;
52734;SDS011;38631;47.572;10.704;2022-10-26T03:33:44;3.83;;;1.50;;
52734;SDS011;38631;47.572;10.704;2022-10-26T03:36:09;2.45;;;1.48;;
52734;SDS011;38631;47.572;10.704;2022-10-26T03:38:35;2.97;;;1.35;;
52734;SDS011;38631;47.572;10.704;2022-10-26T03:41:00;1.55;;;1.08;;
52734;SDS011;38631;47.572;10.704;2022-10-26T03:43:25;1.83;;;1.15;;
52734;SDS011;38631;47.572;10.704;2022-10-26T03:45:51;5.30;;;1.27;;
52734;SDS011;38631;47.572;10.704;2022-10-26T03:48:16;3.53;;;1.52;;
52734;SDS011;38631;47.572;10.704;2022-10-26T03:50:42;2.15;;;0.95;;
52734;SDS011;38631;47.572;10.704;2022-10-26T03:53:08;1.85;;;0.93;;
52734;SDS011;38631;47.572;10.704;2022-10-26T03:55:33;2.22;;;0.85;;
52734;SDS011;38631;47.572;10.704;2022-10-26T03:57:58;4.50;;;1.02;;
52734;SDS011;38631;47.572;10.704;2022-10-26T04:00:24;2.20;;;0.77;;
52734;SDS011;38631;47.572;10.704;2022-10-26T04:02:53;2.63;;;0.93;;
52734;SDS011;38631;47.572;10.704;2022-10-26T04:05:20;3.95;;;0.98;;
52734;SDS011;38631;47.572;10.704;2022-10-26T04:07:59;2.28;;;0.88;;
52734;SDS011;38631;47.572;10.704;2022-10-26T04:10:27;1.85;;;0.85;;
52734;SDS011;38631;47.572;10.704;2022-10-26T04:12:52;4.07;;;1.00;;
52734;SDS011;38631;47.572;10.704;2022-10-26T04:15:18;4.80;;;1.85;;
52734;SDS011;38631;47.572;10.704;2022-10-26T04:17:44;3.58;;;1.98;;
52734;SDS011;38631;47.572;10.704;2022-10-26T04:20:10;4.20;;;1.50;;
52734;SDS011;38631;47.572;10.704;2022-10-26T04:22:36;3.22;;;1.33;;
52734;SDS011;38631;47.572;10.704;2022-10-26T04:25:02;2.10;;;1.38;;
52734;SDS011;38631;47.572;10.704;2022-10-26T04:27:28;1.75;;;1.33;;
52734;SDS011;38631;47.572;10.704;2022-10-26T04:29:53;1.55;;;1.00;;
52734;SDS011;38631;47.572;10.704;2022-10-26T04:32:19;1.48;;;0.70;;
52734;SDS011;38631;47.572;10.704;2022-10-26T04:34:44;1.00;;;0.60;;
52734;SDS011;38631;47.572;10.704;2022-10-26T04:37:09;1.20;;;0.90;;
52734;SDS011;38631;47.572;10.704;2022-10-26T04:39:35;6.70;;;1.33;;
52734;SDS011;38631;47.572;10.704;2022-10-26T04:42:00;3.17;;;1.33;;
52734;SDS011;38631;47.572;10.704;2022-10-26T04:44:25;1.83;;;0.90;;
52734;SDS011;38631;47.572;10.704;2022-10-26T04:46:51;2.05;;;1.00;;
52734;SDS011;38631;47.572;10.704;2022-10-26T04:49:16;3.72;;;1.15;;
52734;SDS011;38631;47.572;10.704;2022-10-26T04:51:42;2.03;;;1.17;;
52734;SDS011;38631;47.572;10.704;2022-10-26T04:54:07;1.60;;;1.00;;
52734;SDS011;38631;47.572;10.704;2022-10-26T04:56:32;4.28;;;1.85;;
52734;SDS011;38631;47.572;10.704;2022-10-26T04:58:58;2.90;;;1.58;;
52734;SDS011;38631;47.572;10.704;2022-10-26T05:01:23;4.85;;;1.88;;
52734;SDS011;38631;47.572;10.704;2022-10-26T05:03:50;4.45;;;2.35;;
52734;SDS011;38631;47.572;10.704;2022-10-26T05:06:16;2.83;;;2.20;;
52734;SDS011;38631;47.572;10.704;2022-10-26T05:08:41;9.57;;;3.05;;
52734;SDS011;38631;47.572;10.704;2022-10-26T05:11:06;8.73;;;2.95;;
52734;SDS011;38631;47.572;10.704;2022-10-26T05:13:32;10.45;;;2.88;;
52734;SDS011;38631;47.572;10.704;2022-10-26T05:15:57;8.50;;;2.22;;
52734;SDS011;38631;47.572;10.704;2022-10-26T05:18:22;4.85;;;1.45;;
52734;SDS011;38631;47.572;10.704;2022-10-26T05:20:50;2.92;;;1.23;;
52734;SDS011;38631;47.572;10.704;2022-10-26T05:23:17;5.93;;;1.15;;
52734;SDS011;38631;47.572;10.704;2022-10-26T05:25:43;6.57;;;1.40;;
52734;SDS011;38631;47.572;10.704;2022-10-26T05:28:09;1.60;;;0.70;;
52734;SDS011;38631;47.572;10.704;2022-10-26T05:30:37;2.33;;;1.10;;
52734;SDS011;38631;47.572;10.704;2022-10-26T05:33:03;3.55;;;1.17;;
52734;SDS011;38631;47.572;10.704;2022-10-26T05:35:30;3.10;;;1.23;;
52734;SDS011;38631;47.572;10.704;2022-10-26T05:37:56;3.45;;;1.40;;
52734;SDS011;38631;47.572;10.704;2022-10-26T05:40:22;3.55;;;1.20;;
52734;SDS011;38631;47.572;10.704;2022-10-26T05:42:47;2.60;;;0.98;;
52734;SDS011;38631;47.572;10.704;2022-10-26T05:45:14;2.40;;;1.15;;
52734;SDS011;38631;47.572;10.704;2022-10-26T05:47:42;3.78;;;1.13;;
52734;SDS011;38631;47.572;10.704;2022-10-26T05:50:09;3.58;;;1.00;;
52734;SDS011;38631;47.572;10.704;2022-10-26T05:52:42;3.10;;;0.88;;
52734;SDS011;38631;47.572;10.704;2022-10-26T05:55:10;2.90;;;0.93;;
52734;SDS011;38631;47.572;10.704;2022-10-26T05:57:40;1.98;;;0.50;;
52734;SDS011;38631;47.572;10.704;2022-10-26T06:00:06;1.02;;;0.50;;
52734;SDS011;38631;47.572;10.704;2022-10-26T06:05:01;1.98;;;0.75;;
52734;SDS011;38631;47.572;10.704;2022-10-26T06:07:28;3.40;;;0.98;;
52734;SDS011;38631;47.572;10.704;2022-10-26T06:09:54;5.53;;;1.15;;
52734;SDS011;38631;47.572;10.704;2022-10-26T06:12:19;2.58;;;0.60;;
52734;SDS011;38631;47.572;10.704;2022-10-26T06:14:45;2.58;;;0.60;;
52734;SDS011;38631;47.572;10.704;2022-10-26T06:17:21;2.30;;;0.70;;
52734;SDS011;38631;47.572;10.704;2022-10-26T06:20:12;3.55;;;0.70;;
52734;SDS011;38631;47.572;10.704;2022-10-26T06:23:13;2.92;;;0.52;;
52734;SDS011;38631;47.572;10.704;2022-10-26T06:29:04;4.00;;;0.70;;
52734;SDS011;38631;47.572;10.704;2022-10-26T06:31:55;3.72;;;0.68;;
52734;SDS011;38631;47.572;10.704;2022-10-26T06:34:25;4.15;;;0.82;;
52734;SDS011;38631;47.572;10.704;2022-10-26T06:36:56;1.38;;;0.57;;
52734;SDS011;38631;47.572;10.704;2022-10-26T06:39:24;3.45;;;0.80;;
52734;SDS011;38631;47.572;10.704;2022-10-26T06:41:54;2.05;;;0.43;;
52734;SDS011;38631;47.572;10.704;2022-10-26T06:44:21;2.33;;;0.70;;
52734;SDS011;38631;47.572;10.704;2022-10-26T06:49:18;1.02;;;0.40;;
52734;SDS011;38631;47.572;10.704;2022-10-26T06:51:48;0.98;;;0.68;;
52734;SDS011;38631;47.572;10.704;2022-10-26T06:54:25;1.42;;;0.70;;
52734;SDS011;38631;47.572;10.704;2022-10-26T06:57:00;1.60;;;0.50;;
52734;SDS011;38631;47.572;10.704;2022-10-26T06:59:35;1.58;;;0.50;;
52734;SDS011;38631;47.572;10.704;2022-10-26T07:02:03;2.67;;;0.77;;
52734;SDS011;38631;47.572;10.704;2022-10-26T07:04:29;2.35;;;0.60;;
52734;SDS011;38631;47.572;10.704;2022-10-26T07:06:54;4.07;;;0.70;;
52734;SDS011;38631;47.572;10.704;2022-10-26T07:09:21;5.38;;;1.42;;
52734;SDS011;38631;47.572;10.704;2022-10-26T07:11:46;2.15;;;0.52;;
52734;SDS011;38631;47.572;10.704;2022-10-26T07:14:12;3.13;;;0.50;;
52734;SDS011;38631;47.572;10.704;2022-10-26T07:16:37;2.53;;;0.88;;
52734;SDS011;38631;47.572;10.704;2022-10-26T07:19:02;1.75;;;0.60;;
52734;SDS011;38631;47.572;10.704;2022-10-26T07:21:28;2.88;;;0.63;;
52734;SDS011;38631;47.572;10.704;2022-10-26T07:23:53;2.33;;;0.73;;
52734;SDS011;38631;47.572;10.704;2022-10-26T07:26:20;1.95;;;0.57;;
52734;SDS011;38631;47.572;10.704;2022-10-26T07:28:47;1.30;;;0.50;;
52734;SDS011;38631;47.572;10.704;2022-10-26T07:31:14;2.70;;;0.60;;
52734;SDS011;38631;47.572;10.704;2022-10-26T07:33:39;2.08;;;0.43;;
52734;SDS011;38631;47.572;10.704;2022-10-26T07:36:06;2.97;;;0.52;;
52734;SDS011;38631;47.572;10.704;2022-10-26T07:38:34;3.80;;;0.50;;
52734;SDS011;38631;47.572;10.704;2022-10-26T07:41:01;3.88;;;0.65;;
52734;SDS011;38631;47.572;10.704;2022-10-26T07:43:26;1.83;;;0.60;;
52734;SDS011;38631;47.572;10.704;2022-10-26T07:45:52;2.88;;;0.70;;
52734;SDS011;38631;47.572;10.704;2022-10-26T07:48:17;1.15;;;0.50;;
52734;SDS011;38631;47.572;10.704;2022-10-26T07:50:42;1.88;;;0.68;;
52734;SDS011;38631;47.572;10.704;2022-10-26T07:53:08;1.02;;;0.40;;
52734;SDS011;38631;47.572;10.704;2022-10-26T07:55:33;4.63;;;0.55;;
52734;SDS011;38631;47.572;10.704;2022-10-26T07:57:58;4.20;;;0.98;;
52734;SDS011;38631;47.572;10.704;2022-10-26T08:00:24;1.10;;;0.30;;
52734;SDS011;38631;47.572;10.704;2022-10-26T08:02:49;1.10;;;0.50;;
52734;SDS011;38631;47.572;10.704;2022-10-26T08:05:15;4.38;;;1.05;;
52734;SDS011;38631;47.572;10.704;2022-10-26T08:07:41;2.17;;;0.70;;
52734;SDS011;38631;47.572;10.704;2022-10-26T08:10:07;4.40;;;0.60;;
52734;SDS011;38631;47.572;10.704;2022-10-26T08:12:33;3.40;;;0.85;;
52734;SDS011;38631;47.572;10.704;2022-10-26T08:14:59;2.38;;;0.95;;
52734;SDS011;38631;47.572;10.704;2022-10-26T08:17:24;2.97;;;0.70;;
52734;SDS011;38631;47.572;10.704;2022-10-26T08:19:49;2.08;;;0.52;;
52734;SDS011;38631;47.572;10.704;2022-10-26T08:22:15;1.77;;;0.57;;
52734;SDS011;38631;47.572;10.704;2022-10-26T08:24:41;2.10;;;0.57;;
52734;SDS011;38631;47.572;10.704;2022-10-26T08:27:10;1.05;;;0.50;;
52734;SDS011;38631;47.572;10.704;2022-10-26T08:29:36;3.33;;;0.60;;
52734;SDS011;38631;47.572;10.704;2022-10-26T08:32:01;1.75;;;0.60;;
52734;SDS011;38631;47.572;10.704;2022-10-26T08:34:26;2.55;;;0.80;;
52734;SDS011;38631;47.572;10.704;2022-10-26T08:36:52;4.22;;;0.70;;
52734;SDS011;38631;47.572;10.704;2022-10-26T08:39:17;5.63;;;1.38;;
52734;SDS011;38631;47.572;10.704;2022-10-26T08:41:43;4.10;;;0.80;;
52734;SDS011;38631;47.572;10.704;2022-10-26T08:46:58;5.07;;;1.20;;
52734;SDS011;38631;47.572;10.704;2022-10-26T08:49:45;3.58;;;1.58;;
52734;SDS011;38631;47.572;10.704;2022-10-26T08:52:14;5.18;;;2.05;;
52734;SDS011;38631;47.572;10.704;2022-10-26T08:57:18;3.00;;;1.50;;
52734;SDS011;38631;47.572;10.704;2022-10-26T09:00:04;6.22;;;1.77;;
52734;SDS011;38631;47.572;10.704;2022-10-26T09:02:42;4.30;;;1.58;;
52734;SDS011;38631;47.572;10.704;2022-10-26T09:05:13;8.55;;;1.95;;
52734;SDS011;38631;47.572;10.704;2022-10-26T09:13:15;10.27;;;1.33;;
52734;SDS011;38631;47.572;10.704;2022-10-26T09:21:25;1.55;;;0.80;;
52734;SDS011;38631;47.572;10.704;2022-10-26T09:24:13;1.90;;;0.80;;
52734;SDS011;38631;47.572;10.704;2022-10-26T09:26:50;2.38;;;0.80;;
52734;SDS011;38631;47.572;10.704;2022-10-26T09:29:18;3.97;;;0.80;;
52734;SDS011;38631;47.572;10.704;2022-10-26T09:31:49;1.42;;;0.47;;
52734;SDS011;38631;47.572;10.704;2022-10-26T09:34:19;2.63;;;0.73;;
52734;SDS011;38631;47.572;10.704;2022-10-26T09:36:51;3.88;;;0.77;;
52734;SDS011;38631;47.572;10.704;2022-10-26T09:39:21;1.58;;;0.43;;
52734;SDS011;38631;47.572;10.704;2022-10-26T09:41:56;5.53;;;1.45;;
52734;SDS011;38631;47.572;10.704;2022-10-26T09:44:27;1.08;;;0.50;;
52734;SDS011;38631;47.572;10.704;2022-10-26T09:49:48;3.80;;;0.90;;
52734;SDS011;38631;47.572;10.704;2022-10-26T09:52:19;1.85;;;0.82;;
52734;SDS011;38631;47.572;10.704;2022-10-26T09:54:45;4.40;;;0.70;;
52734;SDS011;38631;47.572;10.704;2022-10-26T09:57:12;1.58;;;0.90;;
52734;SDS011;38631;47.572;10.704;2022-10-26T09:59:39;2.53;;;0.60;;
52734;SDS011;38631;47.572;10.704;2022-10-26T10:04:57;3.80;;;0.93;;
52734;SDS011;38631;47.572;10.704;2022-10-26T10:07:23;2.08;;;0.98;;
52734;SDS011;38631;47.572;10.704;2022-10-26T10:10:08;3.05;;;1.00;;
52734;SDS011;38631;47.572;10.704;2022-10-26T10:12:40;5.50;;;0.90;;
52734;SDS011;38631;47.572;10.704;2022-10-26T10:15:12;3.92;;;0.65;;
52734;SDS011;38631;47.572;10.704;2022-10-26T10:17:45;2.45;;;1.00;;
52734;SDS011;38631;47.572;10.704;2022-10-26T10:22:57;2.17;;;0.70;;
52734;SDS011;38631;47.572;10.704;2022-10-26T10:25:32;7.00;;;1.35;;
52734;SDS011;38631;47.572;10.704;2022-10-26T10:28:00;2.75;;;0.98;;
52734;SDS011;38631;47.572;10.704;2022-10-26T10:30:30;1.20;;;0.60;;
52734;SDS011;38631;47.572;10.704;2022-10-26T10:33:06;2.03;;;0.60;;
52734;SDS011;38631;47.572;10.704;2022-10-26T10:35:35;8.52;;;1.10;;
52734;SDS011;38631;47.572;10.704;2022-10-26T10:38:02;3.35;;;0.60;;
52734;SDS011;38631;47.572;10.704;2022-10-26T10:40:28;2.95;;;0.73;;
52734;SDS011;38631;47.572;10.704;2022-10-26T10:43:02;4.78;;;0.80;;
52734;SDS011;38631;47.572;10.704;2022-10-26T10:45:30;2.88;;;0.88;;
52734;SDS011;38631;47.572;10.704;2022-10-26T10:47:58;2.38;;;0.60;;
52734;SDS011;38631;47.572;10.704;2022-10-26T10:50:26;2.80;;;0.70;;
52734;SDS011;38631;47.572;10.704;2022-10-26T10:52:53;3.78;;;0.70;;
52734;SDS011;38631;47.572;10.704;2022-10-26T10:55:44;4.30;;;0.63;;
52734;SDS011;38631;47.572;10.704;2022-10-26T11:01:15;4.70;;;1.15;;
52734;SDS011;38631;47.572;10.704;2022-10-26T11:06:37;3.50;;;1.05;;
52734;SDS011;38631;47.572;10.704;2022-10-26T11:09:15;2.67;;;0.80;;
52734;SDS011;38631;47.572;10.704;2022-10-26T11:11:53;3.30;;;0.93;;
52734;SDS011;38631;47.572;10.704;2022-10-26T11:14:27;5.15;;;1.08;;
52734;SDS011;38631;47.572;10.704;2022-10-26T11:19:55;3.67;;;1.15;;
52734;SDS011;38631;47.572;10.704;2022-10-26T11:22:40;3.92;;;1.00;;
52734;SDS011;38631;47.572;10.704;2022-10-26T11:27:50;5.20;;;1.05;;
52734;SDS011;38631;47.572;10.704;2022-10-26T11:30:20;5.10;;;1.05;;
52734;SDS011;38631;47.572;10.704;2022-10-26T11:32:51;1.58;;;0.95;;
52734;SDS011;38631;47.572;10.704;2022-10-26T11:35:28;7.25;;;1.35;;
52734;SDS011;38631;47.572;10.704;2022-10-26T11:40:50;5.88;;;1.08;;
52734;SDS011;38631;47.572;10.704;2022-10-26T11:43:23;6.55;;;1.65;;
52734;SDS011;38631;47.572;10.704;2022-10-26T11:48:52;3.97;;;1.08;;
52734;SDS011;38631;47.572;10.704;2022-10-26T11:54:39;3.35;;;1.15;;
52734;SDS011;38631;47.572;10.704;2022-10-26T11:57:11;5.10;;;1.95;;
52734;SDS011;38631;47.572;10.704;2022-10-26T11:59:41;7.57;;;1.20;;
52734;SDS011;38631;47.572;10.704;2022-10-26T12:04:43;6.30;;;1.50;;
52734;SDS011;38631;47.572;10.704;2022-10-26T12:07:19;4.03;;;1.80;;
52734;SDS011;38631;47.572;10.704;2022-10-26T12:09:48;5.28;;;1.85;;
52734;SDS011;38631;47.572;10.704;2022-10-26T12:12:18;6.07;;;1.63;;
52734;SDS011;38631;47.572;10.704;2022-10-26T12:20:47;6.03;;;1.42;;
52734;SDS011;38631;47.572;10.704;2022-10-26T12:23:26;6.85;;;1.33;;
52734;SDS011;38631;47.572;10.704;2022-10-26T12:25:56;3.88;;;1.50;;
52734;SDS011;38631;47.572;10.704;2022-10-26T12:34:01;3.45;;;1.42;;
52734;SDS011;38631;47.572;10.704;2022-10-26T12:39:30;9.82;;;2.55;;
52734;SDS011;38631;47.572;10.704;2022-10-26T12:42:09;7.93;;;1.77;;
52734;SDS011;38631;47.572;10.704;2022-10-26T13:00:40;6.28;;;1.80;;
52734;SDS011;38631;47.572;10.704;2022-10-26T13:03:26;6.18;;;1.63;;
52734;SDS011;38631;47.572;10.704;2022-10-26T13:08:37;4.38;;;1.83;;
52734;SDS011;38631;47.572;10.704;2022-10-26T13:11:14;8.93;;;2.30;;
52734;SDS011;38631;47.572;10.704;2022-10-26T13:14:07;8.85;;;1.70;;
52734;SDS011;38631;47.572;10.704;2022-10-26T13:16:42;6.13;;;1.85;;
52734;SDS011;38631;47.572;10.704;2022-10-26T13:19:20;8.85;;;1.85;;
52734;SDS011;38631;47.572;10.704;2022-10-26T13:22:01;7.03;;;2.00;;
52734;SDS011;38631;47.572;10.704;2022-10-26T13:24:28;8.32;;;1.92;;
52734;SDS011;38631;47.572;10.704;2022-10-26T13:29:32;5.50;;;1.42;;
52734;SDS011;38631;47.572;10.704;2022-10-26T13:32:17;4.82;;;1.65;;
52734;SDS011;38631;47.572;10.704;2022-10-26T13:34:44;10.45;;;2.03;;
52734;SDS011;38631;47.572;10.704;2022-10-26T13:37:21;4.50;;;1.85;;
52734;SDS011;38631;47.572;10.704;2022-10-26T13:39:51;7.70;;;1.98;;
52734;SDS011;38631;47.572;10.704;2022-10-26T13:42:43;6.68;;;2.10;;
52734;SDS011;38631;47.572;10.704;2022-10-26T13:45:18;6.35;;;1.80;;
52734;SDS011;38631;47.572;10.704;2022-10-26T13:53:07;4.35;;;1.80;;
52734;SDS011;38631;47.572;10.704;2022-10-26T13:58:40;7.20;;;1.42;;
52734;SDS011;38631;47.572;10.704;2022-10-26T14:03:38;6.88;;;1.80;;
52734;SDS011;38631;47.572;10.704;2022-10-26T14:06:04;4.80;;;1.45;;
52734;SDS011;38631;47.572;10.704;2022-10-26T14:08:35;5.43;;;1.90;;
52734;SDS011;38631;47.572;10.704;2022-10-26T14:11:00;6.88;;;1.90;;
52734;SDS011;38631;47.572;10.704;2022-10-26T14:13:27;12.77;;;2.50;;
52734;SDS011;38631;47.572;10.704;2022-10-26T14:15:55;10.32;;;1.75;;
52734;SDS011;38631;47.572;10.704;2022-10-26T14:18:23;15.18;;;1.95;;
52734;SDS011;38631;47.572;10.704;2022-10-26T14:21:00;7.70;;;2.55;;
52734;SDS011;38631;47.572;10.704;2022-10-26T14:23:32;8.27;;;1.52;;
52734;SDS011;38631;47.572;10.704;2022-10-26T14:25:59;10.77;;;1.88;;
52734;SDS011;38631;47.572;10.704;2022-10-26T14:28:26;8.30;;;1.95;;
52734;SDS011;38631;47.572;10.704;2022-10-26T14:30:53;8.18;;;1.88;;
52734;SDS011;38631;47.572;10.704;2022-10-26T14:33:22;7.38;;;2.17;;
52734;SDS011;38631;47.572;10.704;2022-10-26T14:35:51;8.48;;;2.40;;
52734;SDS011;38631;47.572;10.704;2022-10-26T14:38:19;7.00;;;1.67;;
52734;SDS011;38631;47.572;10.704;2022-10-26T14:40:50;6.90;;;2.25;;
52734;SDS011;38631;47.572;10.704;2022-10-26T14:43:19;6.03;;;1.83;;
52734;SDS011;38631;47.572;10.704;2022-10-26T14:45:48;5.20;;;2.08;;
52734;SDS011;38631;47.572;10.704;2022-10-26T14:48:19;7.90;;;2.65;;
52734;SDS011;38631;47.572;10.704;2022-10-26T14:53:46;11.57;;;3.15;;
52734;SDS011;38631;47.572;10.704;2022-10-26T14:58:47;8.05;;;2.10;;
52734;SDS011;38631;47.572;10.704;2022-10-26T15:01:14;8.60;;;2.35;;
52734;SDS011;38631;47.572;10.704;2022-10-26T15:04:03;9.00;;;2.03;;
52734;SDS011;38631;47.572;10.704;2022-10-26T15:06:30;4.55;;;1.83;;
52734;SDS011;38631;47.572;10.704;2022-10-26T15:08:58;7.90;;;2.00;;
52734;SDS011;38631;47.572;10.704;2022-10-26T15:11:26;5.82;;;1.92;;
52734;SDS011;38631;47.572;10.704;2022-10-26T15:13:52;10.18;;;2.67;;
52734;SDS011;38631;47.572;10.704;2022-10-26T15:16:20;11.82;;;3.83;;
52734;SDS011;38631;47.572;10.704;2022-10-26T15:18:48;8.50;;;3.53;;
52734;SDS011;38631;47.572;10.704;2022-10-26T15:23:50;12.85;;;3.30;;
52734;SDS011;38631;47.572;10.704;2022-10-26T15:26:16;8.48;;;3.10;;
52734;SDS011;38631;47.572;10.704;2022-10-26T15:28:42;8.73;;;3.05;;
52734;SDS011;38631;47.572;10.704;2022-10-26T15:33:39;7.47;;;2.72;;
52734;SDS011;38631;47.572;10.704;2022-10-26T15:36:31;8.82;;;2.38;;
52734;SDS011;38631;47.572;10.704;2022-10-26T15:38:59;9.80;;;2.97;;
52734;SDS011;38631;47.572;10.704;2022-10-26T15:41:31;6.07;;;2.83;;
52734;SDS011;38631;47.572;10.704;2022-10-26T15:43:59;10.85;;;4.15;;
52734;SDS011;38631;47.572;10.704;2022-10-26T15:46:32;8.45;;;2.80;;
52734;SDS011;38631;47.572;10.704;2022-10-26T15:48:59;5.28;;;2.97;;
52734;SDS011;38631;47.572;10.704;2022-10-26T15:51:27;9.60;;;3.95;;
52734;SDS011;38631;47.572;10.704;2022-10-26T15:53:54;9.70;;;4.15;;
52734;SDS011;38631;47.572;10.704;2022-10-26T15:56:22;6.20;;;3.25;;
52734;SDS011;38631;47.572;10.704;2022-10-26T15:58:49;10.43;;;3.95;;
52734;SDS011;38631;47.572;10.704;2022-10-26T16:01:16;11.65;;;3.28;;
52734;SDS011;38631;47.572;10.704;2022-10-26T16:03:42;11.82;;;3.42;;
52734;SDS011;38631;47.572;10.704;2022-10-26T16:06:12;10.82;;;3.53;;
52734;SDS011;38631;47.572;10.704;2022-10-26T16:08:41;10.68;;;3.58;;
52734;SDS011;38631;47.572;10.704;2022-10-26T16:11:19;8.70;;;3.40;;
52734;SDS011;38631;47.572;10.704;2022-10-26T16:13:44;10.05;;;3.08;;
52734;SDS011;38631;47.572;10.704;2022-10-26T16:16:11;7.55;;;2.70;;
52734;SDS011;38631;47.572;10.704;2022-10-26T16:18:38;5.72;;;2.83;;
52734;SDS011;38631;47.572;10.704;2022-10-26T16:21:03;11.13;;;2.72;;
52734;SDS011;38631;47.572;10.704;2022-10-26T16:23:28;10.15;;;2.20;;
52734;SDS011;38631;47.572;10.704;2022-10-26T16:25:54;9.75;;;2.67;;
52734;SDS011;38631;47.572;10.704;2022-10-26T16:28:19;8.23;;;2.53;;
52734;SDS011;38631;47.572;10.704;2022-10-26T16:30:45;10.05;;;2.83;;
52734;SDS011;38631;47.572;10.704;2022-10-26T16:33:10;5.97;;;2.80;;
52734;SDS011;38631;47.572;10.704;2022-10-26T16:35:35;9.85;;;2.88;;
52734;SDS011;38631;47.572;10.704;2022-10-26T16:38:01;12.70;;;2.38;;
52734;SDS011;38631;47.572;10.704;2022-10-26T16:40:26;7.97;;;2.10;;
52734;SDS011;38631;47.572;10.704;2022-10-26T16:42:51;9.65;;;2.80;;
52734;SDS011;38631;47.572;10.704;2022-10-26T16:45:17;6.30;;;2.47;;
52734;SDS011;38631;47.572;10.704;2022-10-26T16:47:42;7.72;;;2.58;;
52734;SDS011;38631;47.572;10.704;2022-10-26T16:50:08;4.53;;;2.33;;
52734;SDS011;38631;47.572;10.704;2022-10-26T16:52:35;9.55;;;3.33;;
52734;SDS011;38631;47.572;10.704;2022-10-26T16:55:02;7.93;;;3.30;;
52734;SDS011;38631;47.572;10.704;2022-10-26T16:57:28;11.45;;;3.47;;
52734;SDS011;38631;47.572;10.704;2022-10-26T16:59:53;9.57;;;3.60;;
52734;SDS011;38631;47.572;10.704;2022-10-26T17:02:19;10.05;;;4.50;;
52734;SDS011;38631;47.572;10.704;2022-10-26T17:04:45;10.23;;;5.05;;
52734;SDS011;38631;47.572;10.704;2022-10-26T17:07:10;12.90;;;5.88;;